Station: ELLX - 23/03/2017 10:20Z (il y a 9 minutes)
ELLX 231020Z 10007KT 060V140 CAVOK 10/05 Q1013 NOSIG
Vent du 100º - 7 kt (vent de direction variable de 060º à 140º)
Visibilité > 10 km et plafond haut ou pas de nuages significatifs
Température: +10ºC - Point de rosée: +05ºC - QNH: 1013 hPa
Pas de changement significatif prévu dans les 2 heures qui suivent l'observation